sensor_id;sensor_type;location;lat;lon;timestamp;P1;durP1;ratioP1;P2;durP2;ratioP2
6791;SDS011;3433;48.730;9.108;2024-01-15T00:02:35;22.43;;;9.60;;
6791;SDS011;3433;48.730;9.108;2024-01-15T00:05:22;18.63;;;8.93;;
6791;SDS011;3433;48.730;9.108;2024-01-15T00:08:09;19.83;;;8.20;;
6791;SDS011;3433;48.730;9.108;2024-01-15T00:10:57;25.93;;;9.53;;
6791;SDS011;3433;48.730;9.108;2024-01-15T00:13:44;16.87;;;8.13;;
6791;SDS011;3433;48.730;9.108;2024-01-15T00:16:33;22.43;;;9.57;;
6791;SDS011;3433;48.730;9.108;2024-01-15T00:19:20;21.70;;;8.07;;
6791;SDS011;3433;48.730;9.108;2024-01-15T00:22:09;22.47;;;8.60;;
6791;SDS011;3433;48.730;9.108;2024-01-15T00:24:56;22.50;;;8.80;;
6791;SDS011;3433;48.730;9.108;2024-01-15T00:27:43;19.13;;;7.90;;
6791;SDS011;3433;48.730;9.108;2024-01-15T00:30:30;16.50;;;6.60;;
6791;SDS011;3433;48.730;9.108;2024-01-15T00:33:19;18.73;;;8.13;;
6791;SDS011;3433;48.730;9.108;2024-01-15T00:36:06;21.23;;;8.80;;
6791;SDS011;3433;48.730;9.108;2024-01-15T00:38:54;19.97;;;7.20;;
6791;SDS011;3433;48.730;9.108;2024-01-15T00:41:41;18.20;;;8.10;;
6791;SDS011;3433;48.730;9.108;2024-01-15T00:44:28;16.77;;;8.00;;
6791;SDS011;3433;48.730;9.108;2024-01-15T00:47:17;25.53;;;9.80;;
6791;SDS011;3433;48.730;9.108;2024-01-15T00:50:06;21.77;;;9.27;;
6791;SDS011;3433;48.730;9.108;2024-01-15T00:52:54;22.70;;;8.10;;
6791;SDS011;3433;48.730;9.108;2024-01-15T00:55:41;16.60;;;6.87;;
6791;SDS011;3433;48.730;9.108;2024-01-15T00:58:29;17.27;;;7.77;;
6791;SDS011;3433;48.730;9.108;2024-01-15T01:01:16;22.43;;;7.47;;
6791;SDS011;3433;48.730;9.108;2024-01-15T01:04:03;17.80;;;7.13;;
6791;SDS011;3433;48.730;9.108;2024-01-15T01:06:52;17.27;;;7.27;;
6791;SDS011;3433;48.730;9.108;2024-01-15T01:09:39;22.43;;;7.70;;
6791;SDS011;3433;48.730;9.108;2024-01-15T01:12:26;23.23;;;8.43;;
6791;SDS011;3433;48.730;9.108;2024-01-15T01:15:15;18.70;;;7.23;;
6791;SDS011;3433;48.730;9.108;2024-01-15T01:18:02;19.83;;;8.00;;
6791;SDS011;3433;48.730;9.108;2024-01-15T01:20:50;18.20;;;7.47;;
6791;SDS011;3433;48.730;9.108;2024-01-15T01:23:38;14.77;;;7.13;;
6791;SDS011;3433;48.730;9.108;2024-01-15T01:26:26;21.33;;;8.43;;
6791;SDS011;3433;48.730;9.108;2024-01-15T01:29:13;19.13;;;7.30;;
6791;SDS011;3433;48.730;9.108;2024-01-15T01:32:00;16.80;;;8.10;;
6791;SDS011;3433;48.730;9.108;2024-01-15T01:34:47;22.53;;;7.50;;
6791;SDS011;3433;48.730;9.108;2024-01-15T01:37:34;20.63;;;7.73;;
6791;SDS011;3433;48.730;9.108;2024-01-15T01:40:23;19.33;;;7.80;;
6791;SDS011;3433;48.730;9.108;2024-01-15T01:43:10;16.00;;;6.90;;
6791;SDS011;3433;48.730;9.108;2024-01-15T01:45:57;15.07;;;6.60;;
6791;SDS011;3433;48.730;9.108;2024-01-15T01:48:46;20.80;;;7.80;;
6791;SDS011;3433;48.730;9.108;2024-01-15T01:51:34;18.43;;;7.30;;
6791;SDS011;3433;48.730;9.108;2024-01-15T01:54:22;15.07;;;5.97;;
6791;SDS011;3433;48.730;9.108;2024-01-15T01:57:11;16.77;;;7.70;;
6791;SDS011;3433;48.730;9.108;2024-01-15T01:59:59;16.50;;;6.80;;
6791;SDS011;3433;48.730;9.108;2024-01-15T02:02:49;20.07;;;8.33;;
6791;SDS011;3433;48.730;9.108;2024-01-15T02:05:36;16.10;;;7.47;;
6791;SDS011;3433;48.730;9.108;2024-01-15T02:08:25;17.13;;;6.60;;
6791;SDS011;3433;48.730;9.108;2024-01-15T02:11:12;17.87;;;7.43;;
6791;SDS011;3433;48.730;9.108;2024-01-15T02:14:01;19.50;;;7.77;;
6791;SDS011;3433;48.730;9.108;2024-01-15T02:16:48;17.60;;;7.13;;
6791;SDS011;3433;48.730;9.108;2024-01-15T02:19:36;16.80;;;6.70;;
6791;SDS011;3433;48.730;9.108;2024-01-15T02:22:25;15.23;;;6.53;;
6791;SDS011;3433;48.730;9.108;2024-01-15T02:25:13;17.13;;;5.93;;
6791;SDS011;3433;48.730;9.108;2024-01-15T02:28:01;17.10;;;6.90;;
6791;SDS011;3433;48.730;9.108;2024-01-15T02:30:48;14.40;;;7.17;;
6791;SDS011;3433;48.730;9.108;2024-01-15T02:33:35;18.60;;;7.30;;
6791;SDS011;3433;48.730;9.108;2024-01-15T02:36:23;13.43;;;6.03;;
6791;SDS011;3433;48.730;9.108;2024-01-15T02:39:10;18.13;;;7.23;;
6791;SDS011;3433;48.730;9.108;2024-01-15T02:41:59;17.17;;;6.87;;
6791;SDS011;3433;48.730;9.108;2024-01-15T02:44:46;18.47;;;8.00;;
6791;SDS011;3433;48.730;9.108;2024-01-15T02:47:34;22.40;;;7.70;;
6791;SDS011;3433;48.730;9.108;2024-01-15T02:50:21;19.00;;;7.07;;
6791;SDS011;3433;48.730;9.108;2024-01-15T02:53:08;15.07;;;6.97;;
6791;SDS011;3433;48.730;9.108;2024-01-15T02:55:55;24.93;;;7.17;;
6791;SDS011;3433;48.730;9.108;2024-01-15T02:58:44;18.00;;;7.60;;
6791;SDS011;3433;48.730;9.108;2024-01-15T03:01:31;17.77;;;6.60;;
6791;SDS011;3433;48.730;9.108;2024-01-15T03:04:18;16.70;;;7.03;;
6791;SDS011;3433;48.730;9.108;2024-01-15T03:07:06;20.67;;;7.00;;
6791;SDS011;3433;48.730;9.108;2024-01-15T03:09:53;20.73;;;7.40;;
6791;SDS011;3433;48.730;9.108;2024-01-15T03:12:40;19.33;;;7.40;;
6791;SDS011;3433;48.730;9.108;2024-01-15T03:15:29;17.57;;;7.43;;
6791;SDS011;3433;48.730;9.108;2024-01-15T03:18:16;20.20;;;8.63;;
6791;SDS011;3433;48.730;9.108;2024-01-15T03:21:04;15.80;;;7.10;;
6791;SDS011;3433;48.730;9.108;2024-01-15T03:23:52;17.73;;;7.37;;
6791;SDS011;3433;48.730;9.108;2024-01-15T03:26:39;16.90;;;6.53;;
6791;SDS011;3433;48.730;9.108;2024-01-15T03:29:27;17.80;;;6.80;;
6791;SDS011;3433;48.730;9.108;2024-01-15T03:32:15;19.30;;;7.10;;
6791;SDS011;3433;48.730;9.108;2024-01-15T03:35:03;18.37;;;7.20;;
6791;SDS011;3433;48.730;9.108;2024-01-15T03:37:50;18.80;;;8.40;;
6791;SDS011;3433;48.730;9.108;2024-01-15T03:40:37;16.90;;;6.20;;
6791;SDS011;3433;48.730;9.108;2024-01-15T03:43:25;18.27;;;7.10;;
6791;SDS011;3433;48.730;9.108;2024-01-15T03:46:13;15.90;;;7.53;;
6791;SDS011;3433;48.730;9.108;2024-01-15T03:49:02;15.37;;;7.17;;
6791;SDS011;3433;48.730;9.108;2024-01-15T03:51:49;20.03;;;7.30;;
6791;SDS011;3433;48.730;9.108;2024-01-15T03:54:37;15.83;;;7.03;;
6791;SDS011;3433;48.730;9.108;2024-01-15T03:57:24;13.43;;;6.50;;
6791;SDS011;3433;48.730;9.108;2024-01-15T04:00:12;16.17;;;6.90;;
6791;SDS011;3433;48.730;9.108;2024-01-15T04:03:02;16.00;;;6.27;;
6791;SDS011;3433;48.730;9.108;2024-01-15T04:05:51;16.73;;;6.70;;
6791;SDS011;3433;48.730;9.108;2024-01-15T04:08:38;12.07;;;5.70;;
6791;SDS011;3433;48.730;9.108;2024-01-15T04:11:25;16.93;;;7.03;;
6791;SDS011;3433;48.730;9.108;2024-01-15T04:14:12;15.30;;;6.37;;
6791;SDS011;3433;48.730;9.108;2024-01-15T04:17:00;14.00;;;7.10;;
6791;SDS011;3433;48.730;9.108;2024-01-15T04:19:47;14.63;;;6.30;;
6791;SDS011;3433;48.730;9.108;2024-01-15T04:22:35;14.77;;;6.20;;
6791;SDS011;3433;48.730;9.108;2024-01-15T04:25:23;15.17;;;6.30;;
6791;SDS011;3433;48.730;9.108;2024-01-15T04:28:10;15.27;;;6.83;;
6791;SDS011;3433;48.730;9.108;2024-01-15T04:30:57;14.73;;;6.63;;
6791;SDS011;3433;48.730;9.108;2024-01-15T04:33:45;19.87;;;7.20;;
6791;SDS011;3433;48.730;9.108;2024-01-15T04:36:32;16.40;;;6.93;;
6791;SDS011;3433;48.730;9.108;2024-01-15T04:39:26;17.53;;;7.80;;
6791;SDS011;3433;48.730;9.108;2024-01-15T04:42:13;14.53;;;6.30;;
6791;SDS011;3433;48.730;9.108;2024-01-15T04:45:00;13.97;;;6.00;;
6791;SDS011;3433;48.730;9.108;2024-01-15T04:47:47;18.07;;;7.80;;
6791;SDS011;3433;48.730;9.108;2024-01-15T04:50:35;16.70;;;6.67;;
6791;SDS011;3433;48.730;9.108;2024-01-15T04:53:22;19.13;;;6.90;;
6791;SDS011;3433;48.730;9.108;2024-01-15T04:56:11;17.60;;;7.50;;
6791;SDS011;3433;48.730;9.108;2024-01-15T04:58:58;19.53;;;7.50;;
6791;SDS011;3433;48.730;9.108;2024-01-15T05:01:45;19.30;;;8.10;;
6791;SDS011;3433;48.730;9.108;2024-01-15T05:04:32;16.17;;;6.47;;
6791;SDS011;3433;48.730;9.108;2024-01-15T05:07:19;18.07;;;7.67;;
6791;SDS011;3433;48.730;9.108;2024-01-15T05:10:07;22.00;;;7.43;;
6791;SDS011;3433;48.730;9.108;2024-01-15T05:12:55;23.07;;;8.33;;
6791;SDS011;3433;48.730;9.108;2024-01-15T05:15:43;15.30;;;7.60;;
6791;SDS011;3433;48.730;9.108;2024-01-15T05:18:30;19.30;;;8.57;;
6791;SDS011;3433;48.730;9.108;2024-01-15T05:21:17;18.23;;;7.93;;
6791;SDS011;3433;48.730;9.108;2024-01-15T05:24:04;18.73;;;7.73;;
6791;SDS011;3433;48.730;9.108;2024-01-15T05:26:52;18.30;;;8.13;;
6791;SDS011;3433;48.730;9.108;2024-01-15T05:29:40;19.63;;;8.27;;
6791;SDS011;3433;48.730;9.108;2024-01-15T05:32:28;16.33;;;7.20;;
6791;SDS011;3433;48.730;9.108;2024-01-15T05:35:15;16.00;;;7.40;;
6791;SDS011;3433;48.730;9.108;2024-01-15T05:38:02;15.33;;;6.80;;
6791;SDS011;3433;48.730;9.108;2024-01-15T05:40:50;20.33;;;8.10;;
6791;SDS011;3433;48.730;9.108;2024-01-15T05:43:37;17.13;;;7.70;;
6791;SDS011;3433;48.730;9.108;2024-01-15T05:46:26;16.13;;;7.13;;
6791;SDS011;3433;48.730;9.108;2024-01-15T05:49:13;19.23;;;7.90;;
6791;SDS011;3433;48.730;9.108;2024-01-15T05:52:00;14.20;;;6.63;;
6791;SDS011;3433;48.730;9.108;2024-01-15T05:54:47;16.30;;;6.77;;
6791;SDS011;3433;48.730;9.108;2024-01-15T05:57:35;17.27;;;7.87;;
6791;SDS011;3433;48.730;9.108;2024-01-15T06:00:23;14.07;;;6.47;;
6791;SDS011;3433;48.730;9.108;2024-01-15T06:03:12;14.03;;;7.23;;
6791;SDS011;3433;48.730;9.108;2024-01-15T06:05:59;19.90;;;6.30;;
6791;SDS011;3433;48.730;9.108;2024-01-15T06:08:46;14.20;;;6.73;;
6791;SDS011;3433;48.730;9.108;2024-01-15T06:11:34;17.53;;;6.30;;
6791;SDS011;3433;48.730;9.108;2024-01-15T06:14:21;16.93;;;6.60;;
6791;SDS011;3433;48.730;9.108;2024-01-15T06:17:09;17.20;;;6.90;;
6791;SDS011;3433;48.730;9.108;2024-01-15T06:19:57;16.77;;;7.17;;
6791;SDS011;3433;48.730;9.108;2024-01-15T06:22:45;14.33;;;7.50;;
6791;SDS011;3433;48.730;9.108;2024-01-15T06:25:32;15.77;;;7.93;;
6791;SDS011;3433;48.730;9.108;2024-01-15T06:28:19;15.73;;;6.93;;
6791;SDS011;3433;48.730;9.108;2024-01-15T06:31:06;15.17;;;7.10;;
6791;SDS011;3433;48.730;9.108;2024-01-15T06:33:54;17.97;;;7.50;;
6791;SDS011;3433;48.730;9.108;2024-01-15T06:36:43;18.30;;;7.40;;
6791;SDS011;3433;48.730;9.108;2024-01-15T06:39:30;16.17;;;7.33;;
6791;SDS011;3433;48.730;9.108;2024-01-15T06:42:17;13.13;;;7.50;;
6791;SDS011;3433;48.730;9.108;2024-01-15T06:45:07;13.07;;;6.67;;
6791;SDS011;3433;48.730;9.108;2024-01-15T06:47:55;11.80;;;5.60;;
6791;SDS011;3433;48.730;9.108;2024-01-15T06:50:42;16.83;;;6.90;;
6791;SDS011;3433;48.730;9.108;2024-01-15T06:53:31;13.47;;;6.20;;
6791;SDS011;3433;48.730;9.108;2024-01-15T06:56:18;19.77;;;7.77;;
6791;SDS011;3433;48.730;9.108;2024-01-15T06:59:06;18.93;;;7.30;;
6791;SDS011;3433;48.730;9.108;2024-01-15T07:01:53;15.17;;;6.40;;
6791;SDS011;3433;48.730;9.108;2024-01-15T07:04:40;18.23;;;7.53;;
6791;SDS011;3433;48.730;9.108;2024-01-15T07:07:28;16.03;;;7.47;;
6791;SDS011;3433;48.730;9.108;2024-01-15T07:10:16;18.00;;;8.02;;
6791;SDS011;3433;48.730;9.108;2024-01-15T07:13:04;14.37;;;7.00;;
6791;SDS011;3433;48.730;9.108;2024-01-15T07:15:51;14.83;;;7.50;;
6791;SDS011;3433;48.730;9.108;2024-01-15T07:18:38;17.70;;;8.40;;
6791;SDS011;3433;48.730;9.108;2024-01-15T07:21:25;12.00;;;5.77;;
6791;SDS011;3433;48.730;9.108;2024-01-15T07:24:13;15.37;;;7.30;;
6791;SDS011;3433;48.730;9.108;2024-01-15T07:27:01;16.40;;;8.00;;
6791;SDS011;3433;48.730;9.108;2024-01-15T07:29:50;19.93;;;6.77;;
6791;SDS011;3433;48.730;9.108;2024-01-15T07:32:37;15.80;;;7.40;;
6791;SDS011;3433;48.730;9.108;2024-01-15T07:35:24;15.60;;;6.70;;
6791;SDS011;3433;48.730;9.108;2024-01-15T07:38:12;17.00;;;8.00;;
6791;SDS011;3433;48.730;9.108;2024-01-15T07:40:59;15.23;;;6.53;;
6791;SDS011;3433;48.730;9.108;2024-01-15T07:43:47;16.20;;;6.20;;
6791;SDS011;3433;48.730;9.108;2024-01-15T07:46:35;15.73;;;7.57;;
6791;SDS011;3433;48.730;9.108;2024-01-15T07:49:22;13.50;;;5.83;;
6791;SDS011;3433;48.730;9.108;2024-01-15T07:52:10;13.10;;;6.57;;
6791;SDS011;3433;48.730;9.108;2024-01-15T07:54:58;15.27;;;5.93;;
6791;SDS011;3433;48.730;9.108;2024-01-15T07:57:46;13.63;;;5.20;;
6791;SDS011;3433;48.730;9.108;2024-01-15T08:00:34;17.20;;;7.10;;
6791;SDS011;3433;48.730;9.108;2024-01-15T08:03:22;11.50;;;5.70;;
6791;SDS011;3433;48.730;9.108;2024-01-15T08:06:09;12.67;;;5.57;;
6791;SDS011;3433;48.730;9.108;2024-01-15T08:08:56;15.33;;;7.03;;
6791;SDS011;3433;48.730;9.108;2024-01-15T08:11:44;12.50;;;5.33;;
6791;SDS011;3433;48.730;9.108;2024-01-15T08:14:32;17.73;;;6.77;;
6791;SDS011;3433;48.730;9.108;2024-01-15T08:17:20;13.90;;;5.97;;
6791;SDS011;3433;48.730;9.108;2024-01-15T08:20:07;12.00;;;5.67;;
6791;SDS011;3433;48.730;9.108;2024-01-15T08:22:55;13.20;;;5.63;;
6791;SDS011;3433;48.730;9.108;2024-01-15T08:25:43;15.63;;;6.30;;
6791;SDS011;3433;48.730;9.108;2024-01-15T08:28:30;11.60;;;5.80;;
6791;SDS011;3433;48.730;9.108;2024-01-15T08:31:17;12.57;;;5.60;;
6791;SDS011;3433;48.730;9.108;2024-01-15T08:34:06;12.00;;;6.63;;
6791;SDS011;3433;48.730;9.108;2024-01-15T08:36:53;12.20;;;5.80;;
6791;SDS011;3433;48.730;9.108;2024-01-15T08:39:41;12.87;;;6.20;;
6791;SDS011;3433;48.730;9.108;2024-01-15T08:42:28;15.77;;;6.17;;
6791;SDS011;3433;48.730;9.108;2024-01-15T08:45:15;10.90;;;5.57;;
6791;SDS011;3433;48.730;9.108;2024-01-15T08:48:03;12.30;;;5.70;;
6791;SDS011;3433;48.730;9.108;2024-01-15T08:50:52;8.37;;;4.40;;
6791;SDS011;3433;48.730;9.108;2024-01-15T08:53:39;9.40;;;4.47;;
6791;SDS011;3433;48.730;9.108;2024-01-15T08:56:26;12.40;;;5.10;;
6791;SDS011;3433;48.730;9.108;2024-01-15T08:59:13;14.60;;;5.37;;
6791;SDS011;3433;48.730;9.108;2024-01-15T09:02:01;8.80;;;5.40;;
6791;SDS011;3433;48.730;9.108;2024-01-15T09:04:49;12.20;;;4.60;;
6791;SDS011;3433;48.730;9.108;2024-01-15T09:07:37;9.73;;;4.13;;
6791;SDS011;3433;48.730;9.108;2024-01-15T09:10:25;7.33;;;4.37;;
6791;SDS011;3433;48.730;9.108;2024-01-15T09:13:12;10.03;;;4.53;;
6791;SDS011;3433;48.730;9.108;2024-01-15T09:15:59;10.80;;;4.40;;
6791;SDS011;3433;48.730;9.108;2024-01-15T09:18:47;9.77;;;4.03;;
6791;SDS011;3433;48.730;9.108;2024-01-15T09:21:34;12.17;;;4.10;;
6791;SDS011;3433;48.730;9.108;2024-01-15T09:24:23;9.63;;;4.47;;
6791;SDS011;3433;48.730;9.108;2024-01-15T09:27:10;8.43;;;4.87;;
6791;SDS011;3433;48.730;9.108;2024-01-15T09:29:57;6.30;;;4.33;;
6791;SDS011;3433;48.730;9.108;2024-01-15T09:32:45;11.70;;;4.90;;
6791;SDS011;3433;48.730;9.108;2024-01-15T09:35:32;9.50;;;5.23;;
6791;SDS011;3433;48.730;9.108;2024-01-15T09:38:19;9.10;;;4.37;;
6791;SDS011;3433;48.730;9.108;2024-01-15T09:41:08;12.43;;;4.27;;
6791;SDS011;3433;48.730;9.108;2024-01-15T09:43:56;12.43;;;5.17;;
6791;SDS011;3433;48.730;9.108;2024-01-15T09:46:43;11.57;;;4.93;;
6791;SDS011;3433;48.730;9.108;2024-01-15T09:49:30;8.77;;;5.40;;
6791;SDS011;3433;48.730;9.108;2024-01-15T09:52:18;11.20;;;4.47;;
6791;SDS011;3433;48.730;9.108;2024-01-15T09:55:06;11.80;;;5.20;;
6791;SDS011;3433;48.730;9.108;2024-01-15T09:57:57;11.33;;;4.77;;
6791;SDS011;3433;48.730;9.108;2024-01-15T10:00:47;10.33;;;5.00;;
6791;SDS011;3433;48.730;9.108;2024-01-15T10:03:36;7.90;;;4.63;;
6791;SDS011;3433;48.730;9.108;2024-01-15T10:06:25;9.70;;;5.30;;
6791;SDS011;3433;48.730;9.108;2024-01-15T10:09:14;11.03;;;4.60;;
6791;SDS011;3433;48.730;9.108;2024-01-15T10:12:01;9.70;;;5.23;;
6791;SDS011;3433;48.730;9.108;2024-01-15T10:14:51;12.27;;;5.40;;
6791;SDS011;3433;48.730;9.108;2024-01-15T10:17:38;11.60;;;5.13;;
6791;SDS011;3433;48.730;9.108;2024-01-15T10:20:26;7.00;;;4.30;;
6791;SDS011;3433;48.730;9.108;2024-01-15T10:23:14;7.87;;;4.30;;
6791;SDS011;3433;48.730;9.108;2024-01-15T10:26:03;13.20;;;4.00;;
6791;SDS011;3433;48.730;9.108;2024-01-15T10:28:50;7.43;;;3.93;;
6791;SDS011;3433;48.730;9.108;2024-01-15T10:31:39;9.37;;;4.90;;
6791;SDS011;3433;48.730;9.108;2024-01-15T10:34:27;8.33;;;4.50;;
6791;SDS011;3433;48.730;9.108;2024-01-15T10:37:14;9.63;;;4.00;;
6791;SDS011;3433;48.730;9.108;2024-01-15T10:40:01;15.83;;;5.40;;
6791;SDS011;3433;48.730;9.108;2024-01-15T10:42:51;10.27;;;5.03;;
6791;SDS011;3433;48.730;9.108;2024-01-15T10:45:38;14.77;;;5.07;;
6791;SDS011;3433;48.730;9.108;2024-01-15T10:48:27;10.10;;;4.27;;
6791;SDS011;3433;48.730;9.108;2024-01-15T10:51:16;7.23;;;4.93;;
6791;SDS011;3433;48.730;9.108;2024-01-15T10:54:04;7.33;;;4.60;;
6791;SDS011;3433;48.730;9.108;2024-01-15T10:56:51;11.03;;;4.90;;
6791;SDS011;3433;48.730;9.108;2024-01-15T10:59:40;11.77;;;5.13;;
6791;SDS011;3433;48.730;9.108;2024-01-15T11:02:27;7.77;;;4.77;;
6791;SDS011;3433;48.730;9.108;2024-01-15T11:05:19;8.53;;;4.70;;
6791;SDS011;3433;48.730;9.108;2024-01-15T11:08:07;7.70;;;4.60;;
6791;SDS011;3433;48.730;9.108;2024-01-15T11:10:55;9.90;;;5.13;;
6791;SDS011;3433;48.730;9.108;2024-01-15T11:13:42;9.10;;;4.90;;
6791;SDS011;3433;48.730;9.108;2024-01-15T11:19:46;10.30;;;5.87;;
6791;SDS011;3433;48.730;9.108;2024-01-15T11:22:49;10.30;;;4.33;;
6791;SDS011;3433;48.730;9.108;2024-01-15T11:25:37;11.10;;;6.03;;
6791;SDS011;3433;48.730;9.108;2024-01-15T11:34:56;9.80;;;5.20;;
6791;SDS011;3433;48.730;9.108;2024-01-15T11:37:57;11.27;;;5.73;;
6791;SDS011;3433;48.730;9.108;2024-01-15T11:40:46;8.00;;;5.03;;
6791;SDS011;3433;48.730;9.108;2024-01-15T11:43:34;10.10;;;5.27;;
6791;SDS011;3433;48.730;9.108;2024-01-15T11:46:21;9.43;;;5.33;;
6791;SDS011;3433;48.730;9.108;2024-01-15T11:49:09;11.70;;;5.73;;
6791;SDS011;3433;48.730;9.108;2024-01-15T11:52:08;13.10;;;6.40;;
6791;SDS011;3433;48.730;9.108;2024-01-15T11:55:01;12.83;;;6.33;;
6791;SDS011;3433;48.730;9.108;2024-01-15T11:57:57;10.10;;;5.20;;
6791;SDS011;3433;48.730;9.108;2024-01-15T12:00:47;11.30;;;6.10;;
6791;SDS011;3433;48.730;9.108;2024-01-15T12:03:36;8.97;;;5.30;;
6791;SDS011;3433;48.730;9.108;2024-01-15T12:06:24;15.30;;;8.33;;
6791;SDS011;3433;48.730;9.108;2024-01-15T12:09:11;13.53;;;6.33;;
6791;SDS011;3433;48.730;9.108;2024-01-15T12:12:02;8.70;;;5.80;;
6791;SDS011;3433;48.730;9.108;2024-01-15T12:14:53;13.23;;;6.37;;
6791;SDS011;3433;48.730;9.108;2024-01-15T12:17:41;9.60;;;5.10;;
6791;SDS011;3433;48.730;9.108;2024-01-15T12:20:28;10.83;;;5.47;;
6791;SDS011;3433;48.730;9.108;2024-01-15T12:23:16;7.37;;;4.63;;
6791;SDS011;3433;48.730;9.108;2024-01-15T12:26:04;12.63;;;7.60;;
6791;SDS011;3433;48.730;9.108;2024-01-15T12:28:52;11.00;;;5.93;;
6791;SDS011;3433;48.730;9.108;2024-01-15T12:31:41;10.60;;;6.70;;
6791;SDS011;3433;48.730;9.108;2024-01-15T12:34:28;9.33;;;5.03;;
6791;SDS011;3433;48.730;9.108;2024-01-15T12:37:17;10.17;;;6.00;;
6791;SDS011;3433;48.730;9.108;2024-01-15T12:40:06;11.83;;;6.50;;
6791;SDS011;3433;48.730;9.108;2024-01-15T12:42:55;13.27;;;6.07;;
6791;SDS011;3433;48.730;9.108;2024-01-15T12:45:44;14.33;;;6.40;;
6791;SDS011;3433;48.730;9.108;2024-01-15T12:48:32;10.23;;;5.77;;
6791;SDS011;3433;48.730;9.108;2024-01-15T12:51:19;11.90;;;6.60;;
6791;SDS011;3433;48.730;9.108;2024-01-15T12:54:11;14.60;;;7.03;;
6791;SDS011;3433;48.730;9.108;2024-01-15T12:56:58;15.90;;;7.27;;
6791;SDS011;3433;48.730;9.108;2024-01-15T12:59:45;10.40;;;6.80;;
6791;SDS011;3433;48.730;9.108;2024-01-15T13:02:34;12.40;;;6.80;;
6791;SDS011;3433;48.730;9.108;2024-01-15T13:05:21;8.67;;;5.17;;
6791;SDS011;3433;48.730;9.108;2024-01-15T13:08:09;10.27;;;5.40;;
6791;SDS011;3433;48.730;9.108;2024-01-15T13:10:56;9.77;;;5.27;;
6791;SDS011;3433;48.730;9.108;2024-01-15T13:13:43;11.33;;;5.80;;
6791;SDS011;3433;48.730;9.108;2024-01-15T13:16:31;12.43;;;5.20;;
6791;SDS011;3433;48.730;9.108;2024-01-15T13:19:19;11.93;;;4.80;;
6791;SDS011;3433;48.730;9.108;2024-01-15T13:22:07;11.30;;;4.93;;
6791;SDS011;3433;48.730;9.108;2024-01-15T13:24:54;18.53;;;8.10;;
6791;SDS011;3433;48.730;9.108;2024-01-15T13:27:42;12.30;;;5.23;;
6791;SDS011;3433;48.730;9.108;2024-01-15T13:30:29;7.83;;;4.50;;
6791;SDS011;3433;48.730;9.108;2024-01-15T13:33:16;9.20;;;4.10;;
6791;SDS011;3433;48.730;9.108;2024-01-15T13:36:05;8.00;;;3.90;;
6791;SDS011;3433;48.730;9.108;2024-01-15T13:38:55;6.47;;;3.90;;
6791;SDS011;3433;48.730;9.108;2024-01-15T13:41:44;7.90;;;4.27;;
6791;SDS011;3433;48.730;9.108;2024-01-15T13:44:31;10.30;;;4.77;;
6791;SDS011;3433;48.730;9.108;2024-01-15T13:47:18;20.70;;;10.13;;
6791;SDS011;3433;48.730;9.108;2024-01-15T13:50:06;10.00;;;6.23;;
6791;SDS011;3433;48.730;9.108;2024-01-15T13:52:55;15.77;;;6.33;;
6791;SDS011;3433;48.730;9.108;2024-01-15T13:55:43;7.23;;;4.40;;
6791;SDS011;3433;48.730;9.108;2024-01-15T13:58:30;8.50;;;4.90;;
6791;SDS011;3433;48.730;9.108;2024-01-15T14:01:18;11.43;;;5.10;;
6791;SDS011;3433;48.730;9.108;2024-01-15T14:04:05;7.40;;;4.43;;
6791;SDS011;3433;48.730;9.108;2024-01-15T14:06:52;8.23;;;4.23;;
6791;SDS011;3433;48.730;9.108;2024-01-15T14:09:41;8.73;;;3.77;;
6791;SDS011;3433;48.730;9.108;2024-01-15T14:12:28;6.53;;;3.77;;
6791;SDS011;3433;48.730;9.108;2024-01-15T14:15:15;13.03;;;4.33;;
6791;SDS011;3433;48.730;9.108;2024-01-15T14:18:04;7.90;;;4.23;;
6791;SDS011;3433;48.730;9.108;2024-01-15T14:20:54;11.90;;;4.20;;
6791;SDS011;3433;48.730;9.108;2024-01-15T14:23:41;7.63;;;3.80;;
6791;SDS011;3433;48.730;9.108;2024-01-15T14:26:29;13.30;;;5.90;;
6791;SDS011;3433;48.730;9.108;2024-01-15T14:29:17;9.27;;;4.60;;
6791;SDS011;3433;48.730;9.108;2024-01-15T14:32:07;12.67;;;3.90;;
6791;SDS011;3433;48.730;9.108;2024-01-15T14:34:55;8.73;;;3.77;;
6791;SDS011;3433;48.730;9.108;2024-01-15T14:37:43;4.70;;;3.30;;
6791;SDS011;3433;48.730;9.108;2024-01-15T14:40:31;8.30;;;3.10;;
6791;SDS011;3433;48.730;9.108;2024-01-15T14:43:19;3.20;;;2.57;;
6791;SDS011;3433;48.730;9.108;2024-01-15T14:46:06;8.30;;;2.70;;
6791;SDS011;3433;48.730;9.108;2024-01-15T14:48:54;4.60;;;3.10;;
6791;SDS011;3433;48.730;9.108;2024-01-15T14:51:41;5.00;;;2.90;;
6791;SDS011;3433;48.730;9.108;2024-01-15T14:54:29;7.60;;;3.47;;
6791;SDS011;3433;48.730;9.108;2024-01-15T14:57:16;4.63;;;3.57;;
6791;SDS011;3433;48.730;9.108;2024-01-15T15:00:06;6.77;;;4.13;;
6791;SDS011;3433;48.730;9.108;2024-01-15T15:02:55;9.43;;;5.47;;
6791;SDS011;3433;48.730;9.108;2024-01-15T15:05:42;6.77;;;4.67;;
6791;SDS011;3433;48.730;9.108;2024-01-15T15:08:30;8.83;;;3.83;;
6791;SDS011;3433;48.730;9.108;2024-01-15T15:11:17;10.03;;;4.80;;
6791;SDS011;3433;48.730;9.108;2024-01-15T15:14:05;5.30;;;4.10;;
6791;SDS011;3433;48.730;9.108;2024-01-15T15:16:53;10.53;;;4.93;;
6791;SDS011;3433;48.730;9.108;2024-01-15T15:19:41;10.10;;;5.80;;
6791;SDS011;3433;48.730;9.108;2024-01-15T15:22:28;8.97;;;4.57;;
6791;SDS011;3433;48.730;9.108;2024-01-15T15:25:15;12.93;;;6.30;;
6791;SDS011;3433;48.730;9.108;2024-01-15T15:28:03;12.40;;;5.90;;
6791;SDS011;3433;48.730;9.108;2024-01-15T15:30:51;14.27;;;7.70;;
6791;SDS011;3433;48.730;9.108;2024-01-15T15:33:40;12.50;;;6.47;;
6791;SDS011;3433;48.730;9.108;2024-01-15T15:36:27;12.30;;;7.17;;
6791;SDS011;3433;48.730;9.108;2024-01-15T15:39:14;3.63;;;2.83;;
6791;SDS011;3433;48.730;9.108;2024-01-15T15:42:03;18.00;;;8.37;;
6791;SDS011;3433;48.730;9.108;2024-01-15T15:44:50;13.93;;;6.27;;
6791;SDS011;3433;48.730;9.108;2024-01-15T15:47:38;20.90;;;8.97;;
6791;SDS011;3433;48.730;9.108;2024-01-15T15:50:27;16.40;;;9.57;;
6791;SDS011;3433;48.730;9.108;2024-01-15T15:53:14;16.00;;;8.17;;
6791;SDS011;3433;48.730;9.108;2024-01-15T15:56:02;9.03;;;5.77;;
6791;SDS011;3433;48.730;9.108;2024-01-15T15:58:49;11.90;;;6.10;;
6791;SDS011;3433;48.730;9.108;2024-01-15T16:01:37;11.10;;;5.53;;
6791;SDS011;3433;48.730;9.108;2024-01-15T16:04:24;7.30;;;5.20;;
6791;SDS011;3433;48.730;9.108;2024-01-15T16:07:13;12.40;;;6.00;;
6791;SDS011;3433;48.730;9.108;2024-01-15T16:10:00;10.17;;;5.07;;
6791;SDS011;3433;48.730;9.108;2024-01-15T16:12:48;8.53;;;5.40;;
6791;SDS011;3433;48.730;9.108;2024-01-15T16:15:35;5.63;;;4.60;;
6791;SDS011;3433;48.730;9.108;2024-01-15T16:18:22;8.07;;;4.73;;
6791;SDS011;3433;48.730;9.108;2024-01-15T16:21:10;11.03;;;5.50;;
6791;SDS011;3433;48.730;9.108;2024-01-15T16:23:59;16.67;;;8.10;;
6791;SDS011;3433;48.730;9.108;2024-01-15T16:26:46;16.10;;;6.10;;
6791;SDS011;3433;48.730;9.108;2024-01-15T16:29:34;10.60;;;5.77;;
6791;SDS011;3433;48.730;9.108;2024-01-15T16:32:21;9.77;;;5.37;;
6791;SDS011;3433;48.730;9.108;2024-01-15T16:35:08;11.30;;;4.63;;
6791;SDS011;3433;48.730;9.108;2024-01-15T16:37:55;7.67;;;5.20;;
6791;SDS011;3433;48.730;9.108;2024-01-15T16:40:44;7.70;;;4.73;;
6791;SDS011;3433;48.730;9.108;2024-01-15T16:43:31;6.97;;;4.27;;
6791;SDS011;3433;48.730;9.108;2024-01-15T16:46:19;8.93;;;4.10;;
6791;SDS011;3433;48.730;9.108;2024-01-15T16:49:06;12.47;;;5.10;;
6791;SDS011;3433;48.730;9.108;2024-01-15T16:51:55;12.37;;;7.07;;
6791;SDS011;3433;48.730;9.108;2024-01-15T16:54:42;11.40;;;7.20;;
6791;SDS011;3433;48.730;9.108;2024-01-15T16:57:31;9.80;;;5.97;;
6791;SDS011;3433;48.730;9.108;2024-01-15T17:00:18;7.10;;;4.50;;
6791;SDS011;3433;48.730;9.108;2024-01-15T17:03:06;8.27;;;5.10;;
6791;SDS011;3433;48.730;9.108;2024-01-15T17:05:53;11.50;;;5.07;;
6791;SDS011;3433;48.730;9.108;2024-01-15T17:08:40;13.53;;;5.23;;
6791;SDS011;3433;48.730;9.108;2024-01-15T17:11:28;9.67;;;5.23;;
6791;SDS011;3433;48.730;9.108;2024-01-15T17:14:16;6.17;;;4.80;;
6791;SDS011;3433;48.730;9.108;2024-01-15T17:17:04;8.50;;;4.87;;
6791;SDS011;3433;48.730;9.108;2024-01-15T17:19:51;8.57;;;5.70;;
6791;SDS011;3433;48.730;9.108;2024-01-15T17:22:39;8.97;;;5.80;;